createdAt,value
2023-05-25T00:01:20.745Z,102058.94
2023-05-25T00:03:52.793Z,102063.31
2023-05-25T00:06:20.072Z,102058.47
2023-05-25T00:08:48.681Z,102054.66
2023-05-25T00:11:19.550Z,102053.13
2023-05-25T00:13:46.579Z,102054.66
2023-05-25T00:16:13.645Z,102054.75
2023-05-25T00:18:40.703Z,102052.78
2023-05-25T00:21:07.772Z,102056.59
2023-05-25T00:23:34.797Z,102056.69
2023-05-25T00:26:06.383Z,102053.50
2023-05-25T00:28:38.110Z,102051.41
2023-05-25T00:31:05.198Z,102056.22
2023-05-25T00:33:32.175Z,102051.31
2023-05-25T00:36:00.174Z,102047.13
2023-05-25T00:38:27.337Z,102049.22
2023-05-25T00:40:57.706Z,102050.94
2023-05-25T00:43:30.668Z,102048.59
2023-05-25T00:46:01.605Z,102060.66
2023-05-25T00:48:30.908Z,102050.94
2023-05-25T00:50:59.943Z,102041.13
2023-05-25T00:53:29.787Z,102045.56
2023-05-25T00:56:25.064Z,102049.22
2023-05-25T00:58:57.015Z,102051.91
2023-05-25T01:01:26.384Z,102047.19
2023-05-25T01:03:56.339Z,102048.06
2023-05-25T01:06:23.735Z,102045.94
2023-05-25T01:09:00.266Z,102052.88
2023-05-25T01:11:37.599Z,102043.47
2023-05-25T01:14:05.222Z,102049.22
2023-05-25T01:16:32.407Z,102053.97
2023-05-25T01:19:03.901Z,102054.50
2023-05-25T01:21:42.501Z,102058.72
2023-05-25T01:24:22.670Z,102061.88
2023-05-25T01:27:13.257Z,102057.84
2023-05-25T01:29:45.604Z,102057.63
2023-05-25T01:32:18.133Z,102056.66
2023-05-25T01:34:46.587Z,102050.94
2023-05-25T01:37:14.019Z,102063.81
2023-05-25T01:39:41.736Z,102058.31
2023-05-25T01:42:08.781Z,102047.25
2023-05-25T01:44:37.477Z,102059.13
2023-05-25T01:47:33.182Z,102054.00
2023-05-25T01:50:12.446Z,102052.34
2023-05-25T01:52:50.478Z,102050.53
2023-05-25T01:55:22.643Z,102060.22
2023-05-25T01:57:53.254Z,102054.56
2023-05-25T02:00:25.119Z,102058.34
2023-05-25T02:02:57.385Z,102060.13
2023-05-25T02:05:24.492Z,102058.88
2023-05-25T02:07:52.167Z,102048.66
2023-05-25T02:10:19.180Z,102053.53
2023-05-25T02:12:51.720Z,102061.66
2023-05-25T02:15:19.323Z,102056.53
2023-05-25T02:17:46.327Z,102049.16
2023-05-25T02:20:13.876Z,102054.56
2023-05-25T02:22:43.542Z,102058.78
2023-05-25T02:25:12.937Z,102052.19
2023-05-25T02:27:39.902Z,102054.88
2023-05-25T02:30:07.895Z,102045.41
2023-05-25T02:32:37.999Z,102046.88
2023-05-25T02:35:07.925Z,102053.69
2023-05-25T02:37:37.397Z,102052.84
2023-05-25T02:40:06.420Z,102054.59
2023-05-25T02:42:35.677Z,102054.59
2023-05-25T02:45:06.587Z,102059.91
2023-05-25T02:47:33.589Z,102051.06
2023-05-25T02:50:03.119Z,102045.44
2023-05-25T02:52:31.780Z,102050.31
2023-05-25T02:55:01.224Z,102056.94
2023-05-25T02:57:29.171Z,102058.44
2023-05-25T02:59:57.078Z,102057.53
2023-05-25T03:02:31.333Z,102054.72
2023-05-25T03:05:03.124Z,102053.69
2023-05-25T03:07:31.800Z,102060.84
2023-05-25T03:09:59.657Z,102058.19
2023-05-25T03:12:29.200Z,102055.06
2023-05-25T03:14:58.384Z,102061.56
2023-05-25T03:17:25.542Z,102062.16
2023-05-25T03:19:53.297Z,102058.78
2023-05-25T03:22:20.484Z,102057.97
2023-05-25T03:24:50.267Z,102065.09
2023-05-25T03:27:17.327Z,102066.13
2023-05-25T03:29:44.235Z,102078.28
2023-05-25T03:32:11.305Z,102073.25
2023-05-25T03:34:40.631Z,102072.78
2023-05-25T03:37:07.658Z,102072.59
2023-05-25T03:39:34.645Z,102071.88
2023-05-25T03:42:04.083Z,102076.06
2023-05-25T03:44:31.222Z,102077.59
2023-05-25T03:46:58.553Z,102074.16
2023-05-25T03:49:25.737Z,102076.28
2023-05-25T03:51:52.852Z,102076.84
2023-05-25T03:54:19.909Z,102075.97
2023-05-25T03:56:47.200Z,102087.97
2023-05-25T03:59:14.250Z,102077.03
2023-05-25T04:01:41.365Z,102077.00
2023-05-25T04:04:11.421Z,102079.63
2023-05-25T04:06:39.341Z,102079.72
2023-05-25T04:09:06.380Z,102090.34
2023-05-25T04:11:33.437Z,102092.81
2023-05-25T04:14:00.504Z,102094.03
2023-05-25T04:16:34.859Z,102097.50
2023-05-25T04:19:01.840Z,102107.53
2023-05-25T04:21:29.106Z,102105.72
2023-05-25T04:23:56.534Z,102106.81
2023-05-25T04:26:26.354Z,102105.03
2023-05-25T04:28:55.943Z,102103.53
2023-05-25T04:31:24.903Z,102108.38
2023-05-25T04:33:56.141Z,102109.66
2023-05-25T04:36:26.048Z,102104.94
2023-05-25T04:38:54.729Z,102104.72
2023-05-25T04:41:21.734Z,102112.22
2023-05-25T04:44:05.676Z,102121.34
2023-05-25T04:46:37.572Z,102115.31
2023-05-25T04:49:05.709Z,102119.34
2023-05-25T04:51:33.115Z,102122.06
2023-05-25T04:54:00.173Z,102124.97
2023-05-25T04:56:27.195Z,102126.81
2023-05-25T04:58:54.295Z,102124.88
2023-05-25T05:01:26.577Z,102130.22
2023-05-25T05:03:53.737Z,102129.09
2023-05-25T05:06:24.173Z,102136.97
2023-05-25T05:08:53.626Z,102150.13
2023-05-25T05:11:20.660Z,102140.34
2023-05-25T05:13:47.691Z,102144.47
2023-05-25T05:16:14.782Z,102153.00
2023-05-25T05:18:41.795Z,102150.28
2023-05-25T05:21:08.915Z,102149.72
2023-05-25T05:23:36.565Z,102146.69
2023-05-25T05:26:05.005Z,102153.84
2023-05-25T05:28:36.595Z,102155.88
2023-05-25T05:31:06.892Z,102154.03
2023-05-25T05:33:34.041Z,102165.94
2023-05-25T05:36:02.702Z,102167.25
2023-05-25T05:38:31.978Z,102156.19
2023-05-25T05:40:58.978Z,102158.72
2023-05-25T05:43:28.390Z,102157.59
2023-05-25T05:45:57.616Z,102162.22
2023-05-25T05:48:24.638Z,102165.78
2023-05-25T05:50:51.885Z,102170.88
2023-05-25T05:53:18.833Z,102165.50
2023-05-25T05:55:51.229Z,102175.09
2023-05-25T05:58:19.961Z,102169.63
2023-05-25T06:00:49.470Z,102171.97
2023-05-25T06:03:16.355Z,102183.88
2023-05-25T06:05:46.930Z,102184.41
2023-05-25T06:08:14.304Z,102177.41
2023-05-25T06:10:42.384Z,102187.09
2023-05-25T06:13:09.466Z,102183.66
2023-05-25T06:15:39.395Z,102193.78
2023-05-25T06:18:09.751Z,102194.16
2023-05-25T06:20:39.374Z,102193.78
2023-05-25T06:23:14.081Z,102186.28
2023-05-25T06:25:41.916Z,102194.63
2023-05-25T06:28:09.400Z,102195.19
2023-05-25T06:30:38.942Z,102201.09
2023-05-25T06:33:06.185Z,102196.09
2023-05-25T06:35:33.242Z,102203.50
2023-05-25T06:38:05.445Z,102205.59
2023-05-25T06:40:32.370Z,102218.16
2023-05-25T06:42:59.367Z,102221.75
2023-05-25T06:45:28.559Z,102217.75
2023-05-25T06:47:57.974Z,102217.47
2023-05-25T06:50:25.247Z,102227.16
2023-05-25T06:52:52.374Z,102223.63
2023-05-25T06:55:19.411Z,102214.84
2023-05-25T06:57:46.809Z,102225.56
2023-05-25T07:00:14.785Z,102223.31
2023-05-25T07:02:41.940Z,102220.91
2023-05-25T07:05:10.477Z,102222.91
2023-05-25T07:07:38.131Z,102220.38
2023-05-25T07:10:06.984Z,102218.13
2023-05-25T07:12:34.389Z,102214.13
2023-05-25T07:15:01.353Z,102214.47
2023-05-25T07:17:28.845Z,102222.75
2023-05-25T07:19:56.143Z,102212.16
2023-05-25T07:22:23.774Z,102216.91
2023-05-25T07:24:57.859Z,102217.25
2023-05-25T07:27:27.839Z,102217.34
2023-05-25T07:29:55.169Z,102222.50
2023-05-25T07:32:22.583Z,102228.00
2023-05-25T07:34:50.291Z,102234.81
2023-05-25T07:37:17.289Z,102231.34
2023-05-25T07:39:49.262Z,102230.09
2023-05-25T07:42:21.196Z,102230.91
2023-05-25T07:44:52.912Z,102231.84
2023-05-25T07:47:19.960Z,102237.63
2023-05-25T07:49:47.065Z,102230.09
2023-05-25T07:52:16.451Z,102236.81
2023-05-25T07:54:43.584Z,102231.13
2023-05-25T07:57:13.015Z,102237.56
2023-05-25T07:59:42.708Z,102224.66
2023-05-25T08:02:14.468Z,102232.56
2023-05-25T08:04:41.894Z,102234.03
2023-05-25T08:07:11.514Z,102239.53
2023-05-25T08:09:40.581Z,102225.94
2023-05-25T08:12:30.587Z,102226.69
2023-05-25T08:14:54.753Z,102234.03
2023-05-25T08:17:24.749Z,102235.59
2023-05-25T08:19:55.246Z,102237.59
2023-05-25T08:22:24.754Z,102238.28
2023-05-25T08:24:52.548Z,102242.78
2023-05-25T08:27:24.364Z,102248.19
2023-05-25T08:29:56.821Z,102236.41
2023-05-25T08:32:26.273Z,102239.41
2023-05-25T08:34:53.749Z,102234.63
2023-05-25T08:37:24.972Z,102234.31
2023-05-25T08:39:54.466Z,102237.06
2023-05-25T08:42:21.534Z,102231.34
2023-05-25T08:44:48.651Z,102235.72
2023-05-25T08:47:17.930Z,102233.38
2023-05-25T08:49:49.116Z,102236.69
2023-05-25T08:52:21.827Z,102244.13
2023-05-25T08:54:56.383Z,102243.06
2023-05-25T08:57:54.843Z,102255.50
2023-05-25T09:00:36.610Z,102241.84
2023-05-25T09:03:10.444Z,102251.94
2023-05-25T09:05:38.241Z,102247.25
2023-05-25T09:08:09.653Z,102256.97
2023-05-25T09:10:40.823Z,102245.78
2023-05-25T09:15:37.794Z,102252.84
2023-05-25T09:18:05.412Z,102251.47
2023-05-25T09:20:33.090Z,102249.19
2023-05-25T09:23:00.606Z,102249.75
2023-05-25T09:25:30.745Z,102252.66
2023-05-25T09:28:10.135Z,102252.41
2023-05-25T09:30:53.567Z,102247.31
2023-05-25T09:33:23.175Z,102251.88
2023-05-25T09:35:52.462Z,102249.91
2023-05-25T09:38:22.369Z,102252.38
2023-05-25T09:40:52.532Z,102258.13
2023-05-25T09:43:32.336Z,102262.78
2023-05-25T09:46:11.467Z,102247.91
2023-05-25T09:48:41.415Z,102255.13
2023-05-25T09:51:11.392Z,102248.34
2023-05-25T09:53:38.591Z,102248.31
2023-05-25T09:56:06.413Z,102249.16
2023-05-25T09:58:33.356Z,102250.69
2023-05-25T10:01:00.949Z,102265.56
2023-05-25T10:03:27.998Z,102265.78
2023-05-25T10:05:57.813Z,102263.44
2023-05-25T10:08:28.771Z,102262.38
2023-05-25T10:11:01.609Z,102259.41
2023-05-25T10:13:33.905Z,102269.81
2023-05-25T10:16:02.321Z,102270.88
2023-05-25T10:18:36.520Z,102275.09
2023-05-25T10:21:05.285Z,102276.72
2023-05-25T10:23:45.558Z,102283.78
2023-05-25T10:26:20.104Z,102282.19
2023-05-25T10:28:52.002Z,102280.56
2023-05-25T10:31:19.537Z,102283.25
2023-05-25T10:33:52.149Z,102283.97
2023-05-25T10:36:21.519Z,102280.50
2023-05-25T10:38:54.627Z,102277.91
2023-05-25T10:41:24.002Z,102288.03
2023-05-25T10:43:53.358Z,102277.00
2023-05-25T10:46:21.389Z,102285.66
2023-05-25T10:48:51.893Z,102275.47
2023-05-25T10:51:22.395Z,102269.91
2023-05-25T10:54:03.181Z,102270.75
2023-05-25T10:56:30.124Z,102267.38
2023-05-25T10:58:57.716Z,102262.97
2023-05-25T11:01:28.333Z,102260.88
2023-05-25T11:03:58.429Z,102266.69
2023-05-25T11:06:48.205Z,102263.56
2023-05-25T11:09:33.762Z,102262.09
2023-05-25T11:12:03.437Z,102258.44
2023-05-25T11:14:36.268Z,102256.66
2023-05-25T11:17:19.582Z,102253.41
2023-05-25T11:19:52.147Z,102247.13
2023-05-25T11:22:24.173Z,102254.06
2023-05-25T11:24:54.588Z,102262.81
2023-05-25T11:27:30.071Z,102262.47
2023-05-25T11:29:59.799Z,102254.53
2023-05-25T11:32:30.014Z,102255.72
2023-05-25T11:34:58.540Z,102264.69
2023-05-25T11:37:31.136Z,102252.41
2023-05-25T11:39:58.272Z,102256.41
2023-05-25T11:42:26.399Z,102258.53
2023-05-25T11:44:53.699Z,102249.75
2023-05-25T11:47:25.461Z,102249.94
2023-05-25T11:49:55.683Z,102245.91
2023-05-25T11:52:23.395Z,102240.53
2023-05-25T11:54:51.078Z,102250.44
2023-05-25T11:57:24.802Z,102256.16
2023-05-25T12:00:01.897Z,102235.31
2023-05-25T12:02:37.580Z,102243.53
2023-05-25T12:05:07.864Z,102234.91
2023-05-25T12:07:47.233Z,102243.94
2023-05-25T12:10:17.898Z,102223.72
2023-05-25T12:12:58.203Z,102227.13
2023-05-25T12:15:30.456Z,102219.88
2023-05-25T12:18:00.057Z,102234.72
2023-05-25T12:20:27.527Z,102224.84
2023-05-25T12:22:54.720Z,102226.16
2023-05-25T12:25:22.762Z,102227.94
2023-05-25T12:27:49.940Z,102233.91
2023-05-25T12:30:16.971Z,102231.69
2023-05-25T12:33:04.961Z,102210.88
2023-05-25T12:35:48.195Z,102219.41
2023-05-25T12:38:22.532Z,102219.94
2023-05-25T12:41:08.109Z,102223.94
2023-05-25T12:43:40.235Z,102218.41
2023-05-25T12:46:07.528Z,102227.41
2023-05-25T12:48:34.827Z,102226.97
2023-05-25T12:51:02.087Z,102231.63
2023-05-25T12:53:31.613Z,102219.34
2023-05-25T12:56:04.783Z,102219.03
2023-05-25T12:58:31.752Z,102226.03
2023-05-25T13:00:58.969Z,102214.25
2023-05-25T13:03:26.238Z,102211.44
2023-05-25T13:06:03.634Z,102210.00
2023-05-25T13:08:31.011Z,102212.34
2023-05-25T13:11:03.519Z,102214.44
2023-05-25T13:13:33.149Z,102216.59
2023-05-25T13:16:00.354Z,102217.34
2023-05-25T13:18:27.462Z,102214.06
2023-05-25T13:20:56.901Z,102214.56
2023-05-25T13:23:24.417Z,102211.25
2023-05-25T13:25:53.703Z,102214.09
2023-05-25T13:28:30.149Z,102210.63
2023-05-25T13:30:57.978Z,102207.34
2023-05-25T13:33:29.612Z,102204.13
2023-05-25T13:36:08.597Z,102202.47
2023-05-25T13:38:39.128Z,102210.50
2023-05-25T13:41:06.928Z,102201.25
2023-05-25T13:43:34.186Z,102202.81
2023-05-25T13:46:03.972Z,102208.50
2023-05-25T13:48:31.166Z,102203.59
2023-05-25T13:50:59.859Z,102203.63
2023-05-25T13:53:27.747Z,102190.63
2023-05-25T13:55:54.796Z,102199.88
2023-05-25T13:58:21.849Z,102198.09
2023-05-25T14:00:51.166Z,102198.34
2023-05-25T14:03:18.334Z,102197.97
2023-05-25T14:05:45.853Z,102198.56
2023-05-25T14:08:17.629Z,102187.63
2023-05-25T14:10:45.011Z,102193.22
2023-05-25T14:13:14.346Z,102191.34
2023-05-25T14:15:41.471Z,102182.84
2023-05-25T14:18:08.568Z,102186.44
2023-05-25T14:20:38.218Z,102166.78
2023-05-25T14:23:05.551Z,102179.59
2023-05-25T14:25:32.523Z,102166.75
2023-05-25T14:28:04.131Z,102171.88
2023-05-25T14:30:34.347Z,102166.41
2023-05-25T14:33:04.521Z,102178.00
2023-05-25T14:35:31.732Z,102172.47
2023-05-25T14:37:58.790Z,102177.13
2023-05-25T14:40:25.946Z,102174.03
2023-05-25T14:42:57.990Z,102172.38
2023-05-25T14:45:27.574Z,102165.13
2023-05-25T14:48:03.948Z,102174.44
2023-05-25T14:50:43.912Z,102167.78
2023-05-25T14:53:11.016Z,102167.38
2023-05-25T14:55:37.917Z,102171.00
2023-05-25T14:58:04.906Z,102177.88
2023-05-25T15:00:34.147Z,102164.03
2023-05-25T15:03:01.396Z,102162.06
2023-05-25T15:05:28.536Z,102173.34
2023-05-25T15:07:55.710Z,102170.13
2023-05-25T15:10:22.761Z,102171.06
2023-05-25T15:12:49.831Z,102163.44
2023-05-25T15:15:17.161Z,102170.69
2023-05-25T15:17:44.429Z,102163.41
2023-05-25T15:20:15.132Z,102165.25
2023-05-25T15:22:42.325Z,102173.34
2023-05-25T15:25:16.930Z,102169.88
2023-05-25T15:27:48.738Z,102168.63
2023-05-25T15:30:20.935Z,102176.38
2023-05-25T15:32:49.246Z,102171.28
2023-05-25T15:35:19.371Z,102174.91
2023-05-25T15:37:51.346Z,102161.91
2023-05-25T15:40:20.784Z,102164.41
2023-05-25T15:42:48.128Z,102166.44
2023-05-25T15:45:20.001Z,102171.81
2023-05-25T15:47:47.168Z,102156.75
2023-05-25T15:50:17.158Z,102163.19
2023-05-25T15:52:46.818Z,102165.34
2023-05-25T15:55:14.157Z,102155.69
2023-05-25T15:57:47.545Z,102163.59
2023-05-25T16:00:15.543Z,102160.25
2023-05-25T16:02:42.681Z,102169.81
2023-05-25T16:05:12.597Z,102168.56
2023-05-25T16:07:39.782Z,102163.59
2023-05-25T16:10:10.699Z,102164.03
2023-05-25T16:12:38.034Z,102158.94
2023-05-25T16:15:05.874Z,102164.94
2023-05-25T16:17:33.041Z,102160.28
2023-05-25T16:20:00.299Z,102160.06
2023-05-25T16:22:27.375Z,102155.59
2023-05-25T16:24:54.453Z,102155.16
2023-05-25T16:27:21.572Z,102154.09
2023-05-25T16:29:48.546Z,102161.13
2023-05-25T16:32:15.561Z,102150.91
2023-05-25T16:34:45.214Z,102159.00
2023-05-25T16:37:14.642Z,102153.25
2023-05-25T16:39:41.827Z,102153.47
2023-05-25T16:42:11.290Z,102152.19
2023-05-25T16:44:42.895Z,102151.97
2023-05-25T16:47:12.179Z,102147.47
2023-05-25T16:49:39.293Z,102150.22
2023-05-25T16:52:06.411Z,102151.53
2023-05-25T16:54:35.976Z,102148.34
2023-05-25T16:57:03.180Z,102156.88
2023-05-25T16:59:30.287Z,102152.16
2023-05-25T17:01:57.720Z,102160.28
2023-05-25T17:04:24.941Z,102162.56
2023-05-25T17:06:52.202Z,102154.25
2023-05-25T17:09:19.484Z,102157.00
2023-05-25T17:11:46.554Z,102144.03
2023-05-25T17:14:16.432Z,102148.06
2023-05-25T17:16:46.159Z,102151.31
2023-05-25T17:19:15.038Z,102162.56
2023-05-25T17:21:44.495Z,102148.59
2023-05-25T17:24:11.779Z,102155.19
2023-05-25T17:26:38.854Z,102152.34
2023-05-25T17:29:08.251Z,102151.78
2023-05-25T17:31:38.044Z,102151.31
2023-05-25T17:34:05.106Z,102157.47
2023-05-25T17:36:37.284Z,102148.78
2023-05-25T17:39:07.143Z,102150.81
2023-05-25T17:41:36.672Z,102149.59
2023-05-25T17:44:06.003Z,102157.75
2023-05-25T17:46:36.298Z,102157.78
2023-05-25T17:49:06.048Z,102163.78
2023-05-25T17:51:35.351Z,102163.63
2023-05-25T17:54:05.855Z,102169.41
2023-05-25T17:56:33.112Z,102168.84
2023-05-25T17:59:00.385Z,102163.00
2023-05-25T18:01:27.395Z,102157.94
2023-05-25T18:03:57.676Z,102176.38
2023-05-25T18:06:26.202Z,102162.66
2023-05-25T18:08:57.449Z,102164.22
2023-05-25T18:11:24.557Z,102160.41
2023-05-25T18:13:51.719Z,102170.09
2023-05-25T18:16:18.972Z,102183.13
2023-05-25T18:18:46.107Z,102179.59
2023-05-25T18:21:13.346Z,102174.50
2023-05-25T18:23:40.523Z,102185.44
2023-05-25T18:26:09.694Z,102180.47
2023-05-25T18:28:39.033Z,102184.16
2023-05-25T18:31:06.314Z,102180.34
2023-05-25T18:33:33.530Z,102181.03
2023-05-25T18:36:00.754Z,102184.66
2023-05-25T18:38:27.880Z,102179.88
2023-05-25T18:41:06.120Z,102177.69
2023-05-25T18:43:35.741Z,102175.50
2023-05-25T18:46:07.451Z,102187.66
2023-05-25T18:48:37.522Z,102179.84
2023-05-25T18:51:07.679Z,102185.34
2023-05-25T18:53:34.812Z,102184.25
2023-05-25T18:56:07.009Z,102186.31
2023-05-25T18:58:33.989Z,102195.41
2023-05-25T19:01:00.907Z,102190.56
2023-05-25T19:03:28.531Z,102195.50
2023-05-25T19:05:56.399Z,102204.50
2023-05-25T19:08:23.589Z,102190.81
2023-05-25T19:10:50.866Z,102200.66
2023-05-25T19:13:25.581Z,102204.06
2023-05-25T19:15:55.948Z,102195.44
2023-05-25T19:18:23.885Z,102202.88
2023-05-25T19:20:54.097Z,102199.00
2023-05-25T19:23:25.874Z,102192.50
2023-05-25T19:25:53.114Z,102203.13
2023-05-25T19:28:22.205Z,102197.03
2023-05-25T19:30:52.364Z,102202.59
2023-05-25T19:33:19.788Z,102194.22
2023-05-25T19:35:47.523Z,102203.84
2023-05-25T19:38:16.926Z,102204.25
2023-05-25T19:40:46.360Z,102213.53
2023-05-25T19:43:14.026Z,102224.19
2023-05-25T19:45:45.756Z,102214.31
2023-05-25T19:48:13.219Z,102222.22
2023-05-25T19:50:41.036Z,102223.63
2023-05-25T19:53:08.156Z,102219.47
2023-05-25T19:55:39.081Z,102215.88
2023-05-25T19:58:11.287Z,102230.50
2023-05-25T20:00:38.794Z,102229.38
2023-05-25T20:03:06.139Z,102233.28
2023-05-25T20:05:33.204Z,102235.38
2023-05-25T20:08:00.564Z,102235.38
2023-05-25T20:10:28.012Z,102229.25
2023-05-25T20:12:56.681Z,102233.75
2023-05-25T20:15:25.037Z,102223.50
2023-05-25T20:17:52.933Z,102227.97
2023-05-25T20:20:22.079Z,102239.28
2023-05-25T20:22:51.037Z,102232.63
2023-05-25T20:25:18.768Z,102228.38
2023-05-25T20:27:45.885Z,102231.78
2023-05-25T20:30:17.387Z,102240.00
2023-05-25T20:32:44.502Z,102228.53
2023-05-25T20:35:13.897Z,102245.47
2023-05-25T20:37:43.906Z,102242.41
2023-05-25T20:40:11.657Z,102239.16
2023-05-25T20:42:39.512Z,102252.31
2023-05-25T20:45:07.489Z,102250.97
2023-05-25T20:47:39.373Z,102254.72
2023-05-25T20:50:24.300Z,102251.31
2023-05-25T20:52:54.545Z,102255.53
2023-05-25T20:55:24.377Z,102252.47
2023-05-25T20:57:51.325Z,102263.41
2023-05-25T21:00:20.661Z,102252.63
2023-05-25T21:02:50.758Z,102264.25
2023-05-25T21:05:18.105Z,102263.56
2023-05-25T21:07:46.282Z,102261.69
2023-05-25T21:10:16.506Z,102264.03
2023-05-25T21:12:44.299Z,102262.84
2023-05-25T21:15:17.177Z,102258.06
2023-05-25T21:17:44.886Z,102264.19
2023-05-25T21:20:12.440Z,102264.91
2023-05-25T21:22:42.909Z,102262.50
2023-05-25T21:25:10.663Z,102273.63
2023-05-25T21:27:40.464Z,102272.59
2023-05-25T21:30:13.092Z,102272.72
2023-05-25T21:32:43.500Z,102277.50
2023-05-25T21:35:11.036Z,102273.03
2023-05-25T21:37:38.849Z,102275.97
2023-05-25T21:40:07.554Z,102281.88
2023-05-25T21:42:34.598Z,102277.97
2023-05-25T21:45:02.687Z,102284.56
2023-05-25T21:47:33.546Z,102286.63
2023-05-25T21:50:03.531Z,102285.19
2023-05-25T21:52:30.972Z,102281.66
2023-05-25T21:55:00.523Z,102291.66
2023-05-25T21:57:30.613Z,102296.00
2023-05-25T21:59:57.657Z,102297.03
2023-05-25T22:02:24.885Z,102297.84
2023-05-25T22:04:52.029Z,102297.66
2023-05-25T22:07:21.379Z,102293.50
2023-05-25T22:09:48.618Z,102298.47
2023-05-25T22:12:18.060Z,102309.78
2023-05-25T22:14:47.756Z,102307.72
2023-05-25T22:17:18.150Z,102307.25
2023-05-25T22:19:58.999Z,102312.50
2023-05-25T22:22:36.644Z,102305.69
2023-05-25T22:25:08.582Z,102300.88
2023-05-25T22:27:43.007Z,102311.97
2023-05-25T22:30:10.711Z,102315.03
2023-05-25T22:32:37.763Z,102307.06
2023-05-25T22:35:07.833Z,102313.16
2023-05-25T22:37:37.179Z,102306.06
2023-05-25T22:40:06.685Z,102318.44
2023-05-25T22:42:36.254Z,102309.09
2023-05-25T22:45:05.861Z,102323.47
2023-05-25T22:47:33.092Z,102323.31
2023-05-25T22:50:02.546Z,102318.59
2023-05-25T22:52:29.604Z,102312.88
2023-05-25T22:54:59.456Z,102323.19
2023-05-25T22:57:26.551Z,102321.47
2023-05-25T22:59:53.671Z,102317.72
2023-05-25T23:02:23.734Z,102325.53
2023-05-25T23:04:50.965Z,102331.19
2023-05-25T23:07:20.413Z,102323.19
2023-05-25T23:09:47.732Z,102325.84
2023-05-25T23:12:14.799Z,102327.66
2023-05-25T23:14:44.469Z,102334.97
2023-05-25T23:17:14.201Z,102332.72
2023-05-25T23:19:44.831Z,102344.09
2023-05-25T23:22:14.562Z,102337.44
2023-05-25T23:24:41.739Z,102345.56
2023-05-25T23:27:08.834Z,102344.16
2023-05-25T23:29:36.278Z,102340.19
2023-05-25T23:32:03.844Z,102340.59
2023-05-25T23:34:31.208Z,102348.56
2023-05-25T23:36:58.688Z,102342.88
2023-05-25T23:39:25.970Z,102345.44
2023-05-25T23:41:53.081Z,102340.69
2023-05-25T23:44:22.499Z,102345.72
2023-05-25T23:46:49.608Z,102339.16
2023-05-25T23:49:19.434Z,102342.19
2023-05-25T23:51:46.508Z,102340.06
2023-05-25T23:54:13.749Z,102348.34
2023-05-25T23:56:41.249Z,102339.56
2023-05-25T23:59:15.191Z,102341.91
